Time;durP1;ratioP1;P1;durP2;ratioP2;P2;SDS_P1;SDS_P2;PMS_P1;PMS_P2;Temp;Humidity;BMP_temperature;BMP_pressure;BME280_temperature;BME280_humidity;BME280_pressure;Samples;Min_cycle;Max_cycle;Signal;HPM_P1;HPM_P2
2023/12/27 00:00:41;;;;;;;5.67;1.40;;;5.80;99.90;;;;;;4910923;29;20412;-64
2023/12/27 00:03:06;;;;;;;3.93;1.30;;;5.60;99.90;;;;;;4909819;29;20177;-65
2023/12/27 00:05:32;;;;;;;1.53;1.13;;;5.50;99.90;;;;;;4913232;29;20624;-64
2023/12/27 00:07:57;;;;;;;6.10;1.80;;;5.40;99.90;;;;;;4910150;29;20287;-64
2023/12/27 00:10:23;;;;;;;9.97;2.37;;;5.40;99.90;;;;;;4908765;29;20601;-64
2023/12/27 00:12:49;;;;;;;6.77;1.40;;;5.20;99.90;;;;;;4914335;29;20203;-64
2023/12/27 00:15:14;;;;;;;10.50;2.50;;;5.20;99.90;;;;;;4901548;29;20173;-64
2023/12/27 00:17:40;;;;;;;4.47;1.23;;;5.10;99.90;;;;;;4904456;29;20180;-64
2023/12/27 00:20:06;;;;;;;1.20;1.03;;;5.10;99.90;;;;;;4904159;29;20288;-63
2023/12/27 00:22:32;;;;;;;1.30;1.20;;;5.10;99.90;;;;;;4911250;29;20196;-63
2023/12/27 00:24:57;;;;;;;3.83;1.23;;;5.00;99.90;;;;;;4910241;29;20423;-61
2023/12/27 00:27:23;;;;;;;4.77;1.50;;;4.90;99.90;;;;;;4908133;29;20251;-64
2023/12/27 00:29:49;;;;;;;6.80;1.60;;;4.90;99.90;;;;;;4908992;29;20180;-66
2023/12/27 00:32:15;;;;;;;9.53;1.73;;;4.80;99.90;;;;;;4905844;29;20336;-64
2023/12/27 00:34:40;;;;;;;3.60;1.33;;;4.80;99.90;;;;;;4908446;29;20187;-64
2023/12/27 00:37:07;;;;;;;5.20;1.90;;;4.70;99.90;;;;;;4907460;29;20908;-64
2023/12/27 00:39:34;;;;;;;6.20;1.87;;;4.70;99.90;;;;;;4901213;29;20185;-64
2023/12/27 00:41:59;;;;;;;9.17;2.37;;;4.70;99.90;;;;;;4895421;29;20450;-64
2023/12/27 00:44:25;;;;;;;4.90;2.00;;;4.70;99.90;;;;;;4899606;29;20416;-64
2023/12/27 00:46:51;;;;;;;6.10;1.67;;;4.60;99.90;;;;;;4908904;29;20179;-64
2023/12/27 00:49:17;;;;;;;2.67;1.40;;;4.60;99.90;;;;;;4909189;29;20655;-64
2023/12/27 00:51:43;;;;;;;5.47;1.97;;;4.60;99.90;;;;;;4881671;29;20484;-64
2023/12/27 00:54:09;;;;;;;2.87;1.67;;;4.50;99.90;;;;;;4907025;29;20242;-64
2023/12/27 00:56:35;;;;;;;10.63;1.90;;;4.50;99.90;;;;;;4896057;29;20451;-64
2023/12/27 00:59:01;;;;;;;15.33;2.20;;;4.60;99.90;;;;;;4910240;29;20959;-64
2023/12/27 01:01:29;;;;;;;7.63;1.83;;;4.50;99.90;;;;;;4907206;29;20285;-64
2023/12/27 01:03:55;;;;;;;5.63;1.53;;;4.40;99.90;;;;;;4904234;29;20763;-64
2023/12/27 01:06:21;;;;;;;1.70;1.33;;;4.40;99.90;;;;;;4907682;29;20425;-64
2023/12/27 01:08:47;;;;;;;11.53;1.73;;;4.40;99.90;;;;;;4892501;29;20816;-64
2023/12/27 01:11:13;;;;;;;7.00;1.73;;;4.40;99.90;;;;;;4903499;29;20211;-65
2023/12/27 01:13:38;;;;;;;4.00;2.00;;;4.40;99.90;;;;;;4909017;29;20420;-63
2023/12/27 01:16:04;;;;;;;6.93;2.27;;;4.40;99.90;;;;;;4898483;29;20564;-64
2023/12/27 01:18:30;;;;;;;3.50;1.83;;;4.30;99.90;;;;;;4903741;29;20250;-65
2023/12/27 01:20:56;;;;;;;6.20;1.47;;;4.30;99.90;;;;;;4897645;29;20447;-64
2023/12/27 01:23:21;;;;;;;1.70;1.27;;;4.40;99.90;;;;;;4906968;29;20176;-65
2023/12/27 01:25:47;;;;;;;13.77;3.53;;;4.60;99.90;;;;;;4901305;29;20424;-64
2023/12/27 01:28:12;;;;;;;6.87;3.13;;;4.70;99.90;;;;;;4900817;29;20594;-64
2023/12/27 01:30:38;;;;;;;11.13;2.30;;;4.70;99.90;;;;;;4900655;29;20250;-64
2023/12/27 01:33:04;;;;;;;5.80;1.93;;;4.70;99.90;;;;;;4883238;29;20240;-64
2023/12/27 01:35:29;;;;;;;7.30;1.63;;;4.70;99.90;;;;;;4886443;29;20661;-64
2023/12/27 01:37:55;;;;;;;6.27;2.03;;;4.60;99.90;;;;;;4913367;29;20182;-63
2023/12/27 01:40:20;;;;;;;8.50;2.23;;;4.60;99.90;;;;;;4903065;29;20169;-64
2023/12/27 01:42:46;;;;;;;6.40;2.00;;;4.70;99.90;;;;;;4903634;29;20215;-64
2023/12/27 01:45:12;;;;;;;5.63;1.90;;;4.70;99.90;;;;;;4907131;29;20184;-63
2023/12/27 01:47:37;;;;;;;7.23;1.70;;;4.60;99.90;;;;;;4908313;29;20182;-62
2023/12/27 01:50:10;;;;;;;7.00;3.90;;;4.60;99.90;;;;;;4907828;29;20262;-64
2023/12/27 01:52:36;;;;;;;9.37;2.13;;;4.50;99.90;;;;;;4889479;29;20222;-64
2023/12/27 01:55:03;;;;;;;4.97;2.07;;;4.40;99.90;;;;;;4906360;29;20767;-64
2023/12/27 01:57:29;;;;;;;5.73;2.00;;;4.40;99.90;;;;;;4901176;29;20514;-64
2023/12/27 01:59:55;;;;;;;5.77;2.00;;;4.40;99.90;;;;;;4907619;29;20428;-63
2023/12/27 02:02:22;;;;;;;6.83;2.33;;;4.30;99.90;;;;;;4915049;29;20484;-63
2023/12/27 02:04:48;;;;;;;4.37;1.40;;;4.20;99.90;;;;;;4917197;29;20543;-62
2023/12/27 02:07:14;;;;;;;6.13;1.60;;;4.20;99.90;;;;;;4916831;29;20446;-62
2023/12/27 02:09:40;;;;;;;2.10;1.37;;;4.20;99.90;;;;;;4912599;29;20435;-64
2023/12/27 02:12:07;;;;;;;5.10;1.60;;;4.10;99.90;;;;;;4907025;29;21021;-63
2023/12/27 02:14:32;;;;;;;5.63;1.90;;;4.20;99.90;;;;;;4910137;29;20427;-63
2023/12/27 02:17:00;;;;;;;4.17;1.83;;;4.20;99.90;;;;;;4914058;29;20423;-63
2023/12/27 02:19:27;;;;;;;5.30;3.53;;;4.10;99.90;;;;;;4916695;29;20407;-63
2023/12/27 02:21:53;;;;;;;8.77;1.80;;;4.10;99.90;;;;;;4911490;29;20538;-60
2023/12/27 02:24:21;;;;;;;7.30;2.73;;;4.10;99.90;;;;;;4902770;29;20427;-62
2023/12/27 02:26:47;;;;;;;7.03;2.07;;;4.20;99.90;;;;;;4902639;29;20413;-64
2023/12/27 02:29:13;;;;;;;5.93;1.83;;;4.20;99.90;;;;;;4902986;29;20429;-64
2023/12/27 02:31:39;;;;;;;4.30;1.70;;;4.10;99.90;;;;;;4909772;29;20492;-62
2023/12/27 02:34:05;;;;;;;7.70;2.10;;;4.10;99.90;;;;;;4908055;29;20448;-64
2023/12/27 02:36:30;;;;;;;8.43;2.40;;;4.10;99.90;;;;;;4905578;29;20176;-63
2023/12/27 02:38:56;;;;;;;3.47;1.33;;;4.00;99.90;;;;;;4912711;29;20456;-61
2023/12/27 02:41:22;;;;;;;9.63;1.47;;;3.90;99.90;;;;;;4909390;29;20655;-63
2023/12/27 02:43:48;;;;;;;5.90;1.63;;;4.00;99.90;;;;;;4910337;29;20185;-63
2023/12/27 02:46:13;;;;;;;6.30;1.50;;;4.00;99.90;;;;;;4915564;29;20424;-63
2023/12/27 02:48:39;;;;;;;6.60;1.70;;;4.10;99.90;;;;;;4908362;29;20436;-64
2023/12/27 02:51:05;;;;;;;4.87;2.93;;;4.00;99.90;;;;;;4911077;29;20214;-64
2023/12/27 02:53:31;;;;;;;3.20;1.17;;;4.00;99.90;;;;;;4904683;29;20643;-64
2023/12/27 02:55:57;;;;;;;8.53;1.70;;;4.00;99.90;;;;;;4913298;29;20454;-63
2023/12/27 02:58:22;;;;;;;5.40;2.97;;;4.00;99.90;;;;;;4915824;29;20214;-62
2023/12/27 03:00:49;;;;;;;2.30;1.50;;;4.10;99.90;;;;;;4904199;29;20453;-64
2023/12/27 03:03:14;;;;;;;8.63;1.90;;;3.90;99.90;;;;;;4912688;29;20511;-64
2023/12/27 03:05:40;;;;;;;5.23;1.60;;;3.80;99.90;;;;;;4904909;29;20420;-64
2023/12/27 03:08:05;;;;;;;9.43;1.70;;;4.00;99.90;;;;;;4906146;29;20624;-63
2023/12/27 03:10:31;;;;;;;5.33;2.60;;;3.90;99.90;;;;;;4910695;29;20787;-64
2023/12/27 03:12:57;;;;;;;3.20;1.30;;;4.00;99.90;;;;;;4904469;29;20350;-63
2023/12/27 03:15:22;;;;;;;3.20;1.83;;;4.00;99.90;;;;;;4913709;29;20217;-64
2023/12/27 03:17:48;;;;;;;3.13;1.30;;;4.00;99.90;;;;;;4906372;29;20263;-64
2023/12/27 03:20:14;;;;;;;3.53;1.30;;;3.90;99.90;;;;;;4913644;29;20188;-64
2023/12/27 03:22:39;;;;;;;7.37;2.40;;;3.90;99.90;;;;;;4905912;29;20342;-63
2023/12/27 03:25:05;;;;;;;2.67;1.53;;;3.90;99.90;;;;;;4913262;29;20210;-63
2023/12/27 03:27:31;;;;;;;3.90;1.97;;;3.90;99.90;;;;;;4913980;29;20211;-63
2023/12/27 03:29:57;;;;;;;8.43;2.00;;;3.90;99.90;;;;;;4897671;29;20995;-62
2023/12/27 03:32:25;;;;;;;9.20;1.80;;;3.80;99.90;;;;;;4905780;29;20659;-64
2023/12/27 03:34:51;;;;;;;5.73;2.00;;;3.90;99.90;;;;;;4896212;29;20185;-64
2023/12/27 03:37:16;;;;;;;8.73;2.00;;;3.80;99.90;;;;;;4913088;29;22050;-64
2023/12/27 03:39:43;;;;;;;5.90;1.60;;;3.80;99.90;;;;;;4911512;29;20248;-64
2023/12/27 03:42:09;;;;;;;3.77;1.50;;;3.80;99.90;;;;;;4913020;29;20217;-64
2023/12/27 03:44:35;;;;;;;4.87;1.93;;;3.90;99.90;;;;;;4911217;29;20926;-63
2023/12/27 03:47:01;;;;;;;4.97;1.50;;;3.90;99.90;;;;;;4909521;29;20439;-65
2023/12/27 03:49:27;;;;;;;9.33;1.77;;;3.80;99.90;;;;;;4913662;29;20250;-64
2023/12/27 03:51:52;;;;;;;7.97;1.67;;;3.80;99.90;;;;;;4910043;29;20898;-64
2023/12/27 03:54:18;;;;;;;6.70;2.30;;;3.80;99.90;;;;;;4914319;29;20183;-64
2023/12/27 03:56:46;;;;;;;6.07;1.80;;;3.70;99.90;;;;;;4907537;29;20173;-63
2023/12/27 03:59:12;;;;;;;3.80;1.77;;;3.80;99.90;;;;;;4906265;29;20188;-64
2023/12/27 04:01:38;;;;;;;3.47;1.43;;;3.80;99.90;;;;;;4910219;29;20878;-63
2023/12/27 04:04:03;;;;;;;5.10;1.60;;;3.70;99.90;;;;;;4912197;29;20191;-65
2023/12/27 04:06:29;;;;;;;10.80;2.33;;;3.60;99.90;;;;;;4906992;29;20176;-63
2023/12/27 04:08:55;;;;;;;10.47;2.60;;;3.70;99.90;;;;;;4898943;29;20196;-65
2023/12/27 04:11:20;;;;;;;3.23;1.63;;;3.80;99.90;;;;;;4913408;29;20254;-65
2023/12/27 04:13:46;;;;;;;1.73;1.10;;;3.70;99.90;;;;;;4908229;29;20554;-63
2023/12/27 04:16:12;;;;;;;4.80;1.63;;;3.50;99.90;;;;;;4911242;29;20183;-63
2023/12/27 04:18:37;;;;;;;7.23;2.00;;;3.50;99.90;;;;;;4911118;29;20203;-62
2023/12/27 04:21:03;;;;;;;7.20;1.30;;;3.50;99.90;;;;;;4906785;29;20525;-63
2023/12/27 04:23:29;;;;;;;7.23;1.73;;;3.60;99.90;;;;;;4912809;29;20500;-63
2023/12/27 04:25:55;;;;;;;7.50;1.87;;;3.60;99.90;;;;;;4904959;29;20507;-65
2023/12/27 04:28:21;;;;;;;6.13;1.70;;;3.60;99.90;;;;;;4907885;29;20522;-63
2023/12/27 04:30:47;;;;;;;13.03;2.00;;;3.60;99.90;;;;;;4903548;29;20527;-65
2023/12/27 04:33:13;;;;;;;8.03;1.83;;;3.60;99.90;;;;;;4905286;29;20476;-65
2023/12/27 04:35:39;;;;;;;5.43;3.00;;;3.60;99.90;;;;;;4912776;29;20211;-62
2023/12/27 04:38:04;;;;;;;4.60;1.73;;;3.60;99.90;;;;;;4911420;29;20226;-62
2023/12/27 04:40:30;;;;;;;4.63;2.17;;;3.60;99.90;;;;;;4912308;29;20172;-63
2023/12/27 04:42:56;;;;;;;4.80;1.70;;;3.50;99.90;;;;;;4901875;29;20181;-62
2023/12/27 04:45:21;;;;;;;5.10;1.33;;;3.50;99.90;;;;;;4909327;29;20290;-62
2023/12/27 04:47:47;;;;;;;6.43;1.77;;;3.60;99.90;;;;;;4901052;29;20212;-62
2023/12/27 04:50:12;;;;;;;5.90;1.50;;;3.60;99.90;;;;;;4907903;29;20239;-61
2023/12/27 04:52:38;;;;;;;6.83;1.90;;;3.50;99.90;;;;;;4907804;29;20736;-63
2023/12/27 04:55:04;;;;;;;6.30;1.73;;;3.50;99.90;;;;;;4905042;29;20197;-63
2023/12/27 04:57:30;;;;;;;8.13;1.80;;;3.40;99.90;;;;;;4903584;29;20176;-63
2023/12/27 04:59:56;;;;;;;6.30;1.70;;;3.40;99.90;;;;;;4906611;29;20952;-62
2023/12/27 05:02:21;;;;;;;9.50;1.93;;;3.40;99.90;;;;;;4909687;29;20298;-63
2023/12/27 05:04:47;;;;;;;6.77;2.00;;;3.40;99.90;;;;;;4907546;29;20178;-63
2023/12/27 05:07:13;;;;;;;8.97;2.10;;;3.40;99.90;;;;;;4907402;29;20184;-62
2023/12/27 05:09:39;;;;;;;7.03;2.10;;;3.50;99.90;;;;;;4901326;29;20184;-64
2023/12/27 05:12:05;;;;;;;12.07;1.80;;;3.60;99.90;;;;;;4907620;29;20827;-62
2023/12/27 05:14:31;;;;;;;6.00;2.33;;;3.50;99.90;;;;;;4913959;29;20427;-62
2023/12/27 05:16:56;;;;;;;5.70;2.03;;;3.50;99.90;;;;;;4891646;29;20523;-63
2023/12/27 05:19:22;;;;;;;7.70;2.13;;;3.40;99.90;;;;;;4908357;29;20258;-65
2023/12/27 05:21:48;;;;;;;9.73;1.63;;;3.40;99.90;;;;;;4906710;29;20207;-62
2023/12/27 05:24:13;;;;;;;5.97;1.77;;;3.50;99.90;;;;;;4912106;29;20259;-61
2023/12/27 05:26:39;;;;;;;14.50;2.90;;;3.50;99.90;;;;;;4901543;29;20206;-65
2023/12/27 05:29:05;;;;;;;9.07;1.67;;;3.50;99.90;;;;;;4910413;29;20203;-65
2023/12/27 05:31:30;;;;;;;9.20;2.30;;;3.30;99.90;;;;;;4903005;29;20263;-64
2023/12/27 05:33:56;;;;;;;5.60;2.13;;;3.40;99.90;;;;;;4903460;29;20243;-62
2023/12/27 05:36:21;;;;;;;2.93;1.47;;;3.40;99.90;;;;;;4911954;29;20263;-64
2023/12/27 05:38:47;;;;;;;3.27;1.57;;;3.40;99.90;;;;;;4904956;29;20603;-64
2023/12/27 05:41:13;;;;;;;3.63;1.23;;;3.30;99.90;;;;;;4912549;29;20705;-63
2023/12/27 05:43:38;;;;;;;5.07;1.70;;;3.20;99.90;;;;;;4911307;29;20180;-64
2023/12/27 05:46:04;;;;;;;2.60;1.37;;;3.20;99.90;;;;;;4907896;29;20246;-65
2023/12/27 05:48:30;;;;;;;7.40;1.57;;;3.20;99.90;;;;;;4901294;29;20329;-63
2023/12/27 05:50:56;;;;;;;5.73;1.67;;;3.40;99.90;;;;;;4909084;29;20583;-63
2023/12/27 05:53:22;;;;;;;11.40;2.10;;;3.40;99.90;;;;;;4915981;29;20447;-63
2023/12/27 05:55:47;;;;;;;4.83;1.43;;;3.40;99.90;;;;;;4917011;29;20279;-63
2023/12/27 05:58:13;;;;;;;1.93;1.10;;;3.50;99.90;;;;;;4916776;29;20456;-63
2023/12/27 06:00:39;;;;;;;6.23;1.70;;;3.30;99.90;;;;;;4914631;29;20196;-63
2023/12/27 06:03:04;;;;;;;3.93;1.80;;;3.20;99.90;;;;;;4912159;29;20186;-63
2023/12/27 06:05:30;;;;;;;11.57;1.83;;;3.20;99.90;;;;;;4917200;29;20195;-62
2023/12/27 06:07:56;;;;;;;2.63;1.53;;;3.40;99.90;;;;;;4909109;29;20183;-64
2023/12/27 06:10:21;;;;;;;7.53;1.77;;;3.40;99.90;;;;;;4900111;29;20195;-64
2023/12/27 06:12:47;;;;;;;12.30;2.90;;;3.40;99.90;;;;;;4907716;29;20238;-64
2023/12/27 06:15:13;;;;;;;8.40;1.43;;;3.30;99.90;;;;;;4905026;29;20184;-63
2023/12/27 06:17:39;;;;;;;4.70;1.60;;;3.40;99.90;;;;;;4914161;29;20420;-64
2023/12/27 06:20:06;;;;;;;8.20;2.17;;;3.20;99.90;;;;;;4916666;29;20218;-64
2023/12/27 06:22:32;;;;;;;3.87;1.57;;;3.10;99.90;;;;;;4898468;29;20207;-64
2023/12/27 06:24:58;;;;;;;2.70;1.70;;;3.20;99.90;;;;;;4916470;29;20423;-64
2023/12/27 06:27:23;;;;;;;6.13;1.57;;;3.20;99.90;;;;;;4903364;29;20710;-64
2023/12/27 06:29:49;;;;;;;7.07;1.83;;;3.20;99.90;;;;;;4909599;29;20522;-63
2023/12/27 06:32:15;;;;;;;7.67;1.80;;;3.30;99.90;;;;;;4916182;29;20545;-63
2023/12/27 06:34:41;;;;;;;5.37;1.37;;;3.20;99.90;;;;;;4911351;29;20226;-63
2023/12/27 06:37:06;;;;;;;7.37;1.83;;;3.20;99.90;;;;;;4916426;29;20487;-64
2023/12/27 06:39:32;;;;;;;3.87;1.20;;;3.20;99.90;;;;;;4899382;29;20545;-64
2023/12/27 06:41:58;;;;;;;3.47;1.77;;;3.20;99.90;;;;;;4907964;29;20203;-64
2023/12/27 06:44:23;;;;;;;4.00;1.67;;;3.20;99.90;;;;;;4909127;29;20650;-63
2023/12/27 06:46:49;;;;;;;8.37;3.10;;;3.20;99.90;;;;;;4909954;29;20271;-63
2023/12/27 06:49:15;;;;;;;6.50;2.07;;;3.30;99.90;;;;;;4912912;29;20188;-63
2023/12/27 06:51:40;;;;;;;5.70;1.73;;;3.20;99.90;;;;;;4909430;29;20496;-64
2023/12/27 06:54:06;;;;;;;5.27;1.70;;;3.20;99.90;;;;;;4909088;29;20210;-64
2023/12/27 06:56:32;;;;;;;4.50;4.10;;;3.10;99.90;;;;;;4908525;29;20175;-64
2023/12/27 06:58:57;;;;;;;13.27;3.97;;;3.00;99.90;;;;;;4915956;29;20611;-63
2023/12/27 07:01:24;;;;;;;4.17;2.37;;;3.00;99.90;;;;;;4900307;29;20212;-62
2023/12/27 07:03:50;;;;;;;5.77;2.80;;;3.00;99.90;;;;;;4910568;29;20191;-63
2023/12/27 07:06:17;;;;;;;5.57;2.07;;;3.10;99.90;;;;;;4913432;29;20439;-65
2023/12/27 07:08:43;;;;;;;10.00;3.00;;;3.00;99.90;;;;;;4904245;29;20181;-63
2023/12/27 07:11:15;;;;;;;7.60;2.10;;;3.00;99.90;;;;;;4909524;29;20875;-63
2023/12/27 07:13:42;;;;;;;5.80;2.17;;;3.10;99.90;;;;;;4908425;29;20503;-63
2023/12/27 07:16:07;;;;;;;3.33;1.70;;;3.10;99.90;;;;;;4914619;29;20988;-62
2023/12/27 07:18:33;;;;;;;7.00;2.27;;;3.10;99.90;;;;;;4915032;29;20595;-63
2023/12/27 07:20:59;;;;;;;10.13;2.50;;;3.20;99.90;;;;;;4911313;29;20207;-63
2023/12/27 07:23:24;;;;;;;5.20;2.03;;;3.10;99.90;;;;;;4909804;29;20579;-62
2023/12/27 07:25:50;;;;;;;7.80;3.43;;;3.10;99.90;;;;;;4892053;29;20453;-63
2023/12/27 07:28:16;;;;;;;6.23;1.93;;;3.00;99.90;;;;;;4900985;29;20256;-62
2023/12/27 07:30:42;;;;;;;10.60;1.90;;;3.00;99.90;;;;;;4911600;29;20560;-63
2023/12/27 07:33:07;;;;;;;3.73;1.80;;;3.00;99.90;;;;;;4912109;29;20328;-63
2023/12/27 07:35:33;;;;;;;8.70;2.80;;;2.90;99.90;;;;;;4909301;29;20427;-62
2023/12/27 07:38:00;;;;;;;10.27;2.70;;;3.00;99.90;;;;;;4915404;29;20180;-65
2023/12/27 07:40:27;;;;;;;4.73;1.97;;;3.00;99.90;;;;;;4912898;29;20243;-65
2023/12/27 07:42:53;;;;;;;9.50;2.43;;;3.00;99.90;;;;;;4908665;29;20427;-66
2023/12/27 07:45:22;;;;;;;7.50;1.80;;;2.90;99.90;;;;;;4901976;29;20447;-64
2023/12/27 07:47:47;;;;;;;6.00;2.40;;;3.00;99.90;;;;;;4915327;29;20455;-64
2023/12/27 07:50:13;;;;;;;10.50;2.40;;;3.00;99.90;;;;;;4915123;29;20452;-64
2023/12/27 07:52:39;;;;;;;4.60;2.30;;;3.00;99.90;;;;;;4904333;29;20297;-64
2023/12/27 07:55:05;;;;;;;4.60;2.30;;;3.00;99.90;;;;;;4904759;29;20676;-63
2023/12/27 07:57:30;;;;;;;6.60;2.20;;;3.00;99.90;;;;;;4906231;29;20172;-64
2023/12/27 07:59:57;;;;;;;4.53;1.80;;;3.00;99.90;;;;;;4907625;29;20571;-64
2023/12/27 08:02:23;;;;;;;4.33;2.23;;;3.10;99.90;;;;;;4899624;29;20205;-66
2023/12/27 08:04:49;;;;;;;4.50;2.00;;;3.10;99.90;;;;;;4914663;29;20919;-66
2023/12/27 08:07:15;;;;;;;7.70;2.03;;;3.10;99.90;;;;;;4904663;29;20436;-62
2023/12/27 08:09:40;;;;;;;4.60;2.03;;;3.20;99.90;;;;;;4914706;29;20261;-63
2023/12/27 08:12:09;;;;;;;4.40;2.23;;;3.20;99.90;;;;;;4904134;29;20213;-63
2023/12/27 08:14:36;;;;;;;10.87;2.60;;;3.30;99.90;;;;;;4900851;29;20191;-64
2023/12/27 08:17:02;;;;;;;8.10;2.60;;;3.30;99.90;;;;;;4913292;29;20511;-64
2023/12/27 08:19:27;;;;;;;5.60;2.60;;;3.40;99.90;;;;;;4906723;29;20420;-63
2023/12/27 08:21:53;;;;;;;7.13;3.60;;;3.40;99.90;;;;;;4914381;29;20826;-64
2023/12/27 08:24:19;;;;;;;4.17;1.83;;;3.50;99.90;;;;;;4909265;29;20183;-63
2023/12/27 08:26:44;;;;;;;2.53;2.00;;;3.60;99.90;;;;;;4914479;29;20258;-65
2023/12/27 08:29:10;;;;;;;6.60;2.03;;;3.60;99.90;;;;;;4908564;29;20206;-65
2023/12/27 08:31:35;;;;;;;12.03;2.33;;;3.60;99.90;;;;;;4900288;29;20286;-64
2023/12/27 08:34:02;;;;;;;4.97;2.23;;;3.70;99.90;;;;;;4908066;29;20180;-63
2023/12/27 08:36:32;;;;;;;8.63;2.07;;;3.80;99.90;;;;;;4908484;29;20183;-68
2023/12/27 08:38:57;;;;;;;4.93;3.03;;;4.00;99.90;;;;;;4913391;29;20423;-70
2023/12/27 08:41:24;;;;;;;6.40;1.70;;;4.30;99.90;;;;;;4909531;29;20450;-68
2023/12/27 08:43:51;;;;;;;7.40;2.80;;;4.30;99.90;;;;;;4903291;29;20591;-64
2023/12/27 08:46:19;;;;;;;4.93;2.00;;;4.30;99.90;;;;;;4914017;29;20448;-64
2023/12/27 08:48:46;;;;;;;10.77;2.67;;;4.40;99.90;;;;;;4914034;29;20802;-64
2023/12/27 08:51:12;;;;;;;7.70;2.13;;;4.40;99.90;;;;;;4908463;29;20464;-64
2023/12/27 08:53:38;;;;;;;4.40;1.90;;;4.60;99.90;;;;;;4896412;29;20424;-64
2023/12/27 08:56:04;;;;;;;4.97;1.50;;;4.90;99.90;;;;;;4904976;29;20422;-65
2023/12/27 08:58:30;;;;;;;15.37;2.60;;;5.10;99.90;;;;;;4905445;29;20663;-64
2023/12/27 09:00:58;;;;;;;6.93;2.07;;;5.00;99.90;;;;;;4912528;29;20538;-64
2023/12/27 09:03:24;;;;;;;5.17;1.73;;;5.00;99.90;;;;;;4900451;29;20287;-64
2023/12/27 09:05:49;;;;;;;9.30;3.67;;;4.80;99.90;;;;;;4913919;29;20484;-64
2023/12/27 09:08:15;;;;;;;4.30;2.00;;;4.80;99.90;;;;;;4900706;29;20892;-67
2023/12/27 09:10:41;;;;;;;9.97;2.07;;;4.60;99.90;;;;;;4889366;29;20646;-65
2023/12/27 09:13:06;;;;;;;11.33;2.73;;;4.50;99.90;;;;;;4900999;29;20207;-65
2023/12/27 09:15:32;;;;;;;8.23;2.57;;;4.50;99.90;;;;;;4902670;29;20696;-65
2023/12/27 09:17:58;;;;;;;7.40;2.17;;;4.50;99.90;;;;;;4914014;29;20227;-64
2023/12/27 09:20:24;;;;;;;5.47;2.23;;;4.60;99.90;;;;;;4905031;29;20645;-65
2023/12/27 09:22:49;;;;;;;8.70;2.00;;;4.60;99.90;;;;;;4896998;29;20633;-65
2023/12/27 09:25:15;;;;;;;4.77;2.20;;;4.60;99.90;;;;;;4913679;29;20184;-64
2023/12/27 09:27:40;;;;;;;5.50;2.53;;;4.50;99.90;;;;;;4911488;29;20219;-64
2023/12/27 09:30:06;;;;;;;6.60;2.63;;;4.50;99.90;;;;;;4904103;29;20180;-64
2023/12/27 09:32:32;;;;;;;4.60;1.90;;;4.40;99.90;;;;;;4905836;29;20204;-66
2023/12/27 09:34:58;;;;;;;3.13;2.03;;;4.50;99.90;;;;;;4902151;29;20423;-65
2023/12/27 09:37:23;;;;;;;3.50;2.30;;;4.60;99.90;;;;;;4906216;29;20210;-64
2023/12/27 09:39:49;;;;;;;6.50;2.13;;;4.60;99.90;;;;;;4913711;29;20267;-64
2023/12/27 09:42:15;;;;;;;3.07;2.37;;;4.60;99.90;;;;;;4913717;29;20199;-63
2023/12/27 09:44:45;;;;;;;9.37;2.30;;;4.70;99.90;;;;;;4905799;29;20183;-64
2023/12/27 09:47:13;;;;;;;5.10;1.53;;;4.80;99.90;;;;;;4911964;29;20955;-64
2023/12/27 09:49:39;;;;;;;6.70;2.50;;;4.70;99.90;;;;;;4912010;29;20432;-64
2023/12/27 09:52:06;;;;;;;6.10;1.87;;;4.70;99.90;;;;;;4903212;29;20476;-64
2023/12/27 09:54:32;;;;;;;12.43;2.33;;;4.70;99.90;;;;;;4910829;29;20419;-64
2023/12/27 09:56:58;;;;;;;3.93;1.90;;;4.70;99.90;;;;;;4913281;29;20424;-64
2023/12/27 09:59:38;;;;;;;6.03;2.47;;;4.80;99.90;;;;;;4913316;29;20281;-63
2023/12/27 10:02:11;;;;;;;8.87;2.10;;;4.80;99.90;;;;;;4905107;29;20528;-63
2023/12/27 10:04:56;;;;;;;4.70;1.77;;;4.90;99.90;;;;;;4912142;29;20468;-63
2023/12/27 10:07:24;;;;;;;3.60;2.03;;;5.00;99.90;;;;;;4895696;29;20417;-63
2023/12/27 10:09:50;;;;;;;7.57;2.07;;;5.00;99.90;;;;;;4912862;29;20424;-64
2023/12/27 10:12:16;;;;;;;11.23;2.57;;;5.10;99.90;;;;;;4907514;29;21048;-65
2023/12/27 10:14:43;;;;;;;11.00;3.33;;;5.30;99.90;;;;;;4913141;29;20176;-65
2023/12/27 10:17:09;;;;;;;9.80;2.13;;;5.20;99.90;;;;;;4912994;29;20176;-65
2023/12/27 10:19:44;;;;;;;9.17;3.03;;;5.20;99.90;;;;;;4896375;29;20440;-64
2023/12/27 10:22:12;;;;;;;5.33;1.97;;;5.30;99.90;;;;;;4908434;29;20781;-65
2023/12/27 10:24:38;;;;;;;6.37;2.30;;;5.30;99.90;;;;;;4907482;29;20417;-64
2023/12/27 10:27:06;;;;;;;7.13;2.67;;;5.30;99.90;;;;;;4905084;29;20430;-65
2023/12/27 10:29:32;;;;;;;7.10;1.97;;;5.30;99.90;;;;;;4916103;29;20498;-63
2023/12/27 10:32:03;;;;;;;7.53;2.43;;;5.30;99.90;;;;;;4897329;29;20490;-64
2023/12/27 10:34:29;;;;;;;8.33;2.77;;;5.20;99.90;;;;;;4913912;29;20423;-66
2023/12/27 10:36:56;;;;;;;9.43;4.03;;;5.30;99.90;;;;;;4902668;29;20479;-68
2023/12/27 10:39:22;;;;;;;9.43;2.97;;;5.40;99.90;;;;;;4906841;29;20812;-63
2023/12/27 10:41:51;;;;;;;9.43;3.37;;;5.40;99.90;;;;;;4916489;29;20440;-66
2023/12/27 10:44:18;;;;;;;10.50;3.10;;;5.30;99.90;;;;;;4912249;29;20428;-69
2023/12/27 10:46:44;;;;;;;9.93;2.67;;;5.30;99.90;;;;;;4900775;29;20985;-64
2023/12/27 10:49:13;;;;;;;6.83;2.47;;;5.40;99.90;;;;;;4908731;29;20821;-64
2023/12/27 10:51:40;;;;;;;6.33;2.57;;;5.40;99.90;;;;;;4906289;29;20476;-65
2023/12/27 10:54:07;;;;;;;4.93;2.03;;;5.40;99.90;;;;;;4910883;29;20463;-65
2023/12/27 10:56:37;;;;;;;9.70;2.60;;;5.40;99.90;;;;;;4915927;29;20524;-65
2023/12/27 10:59:09;;;;;;;7.30;2.20;;;5.50;99.90;;;;;;4913539;29;20420;-65
2023/12/27 11:01:38;;;;;;;5.50;2.00;;;5.50;99.90;;;;;;4906221;29;20454;-65
2023/12/27 11:04:13;;;;;;;8.00;2.10;;;5.50;99.90;;;;;;4915717;29;20562;-66
2023/12/27 11:06:39;;;;;;;4.00;2.20;;;5.50;99.90;;;;;;4907117;29;20423;-65
2023/12/27 11:09:07;;;;;;;11.63;2.50;;;5.50;99.90;;;;;;4909306;29;20425;-65
2023/12/27 11:11:38;;;;;;;9.47;2.53;;;5.60;99.90;;;;;;4907784;29;20471;-65
2023/12/27 11:14:05;;;;;;;7.33;2.40;;;5.70;99.90;;;;;;4915555;29;20780;-65
2023/12/27 11:16:34;;;;;;;8.07;2.53;;;5.70;99.90;;;;;;4910595;29;20412;-65
2023/12/27 11:19:01;;;;;;;7.23;1.90;;;5.70;99.90;;;;;;4911229;29;20504;-65
2023/12/27 11:21:27;;;;;;;5.80;3.10;;;5.70;99.90;;;;;;4911014;29;20475;-65
2023/12/27 11:23:52;;;;;;;13.80;2.63;;;5.70;99.90;;;;;;4907297;29;20420;-64
2023/12/27 11:26:18;;;;;;;5.80;2.43;;;5.70;99.90;;;;;;4914504;29;20416;-65
2023/12/27 11:28:46;;;;;;;7.57;3.83;;;5.70;99.90;;;;;;4908647;29;20687;-65
2023/12/27 11:31:13;;;;;;;6.73;3.93;;;5.80;99.90;;;;;;4915054;29;20594;-65
2023/12/27 11:33:42;;;;;;;9.00;2.73;;;5.80;99.90;;;;;;4911225;29;20432;-63
2023/12/27 11:36:08;;;;;;;4.50;1.97;;;5.80;99.90;;;;;;4904939;29;20792;-65
2023/12/27 11:38:33;;;;;;;12.57;3.43;;;5.80;99.90;;;;;;4911141;29;20435;-65
2023/12/27 11:41:01;;;;;;;6.87;2.37;;;5.80;99.90;;;;;;4908678;29;20437;-65
2023/12/27 11:43:47;;;;;;;5.50;2.47;;;5.80;99.90;;;;;;4903975;29;20267;-65
2023/12/27 11:46:13;;;;;;;12.50;2.63;;;5.80;99.90;;;;;;4907855;29;20429;-66
2023/12/27 11:48:38;;;;;;;5.83;2.90;;;5.80;99.90;;;;;;4906691;29;20969;-65
2023/12/27 11:51:33;;;;;;;6.50;2.97;;;5.80;99.90;;;;;;4915167;29;20215;-65
2023/12/27 11:54:00;;;;;;;10.50;2.43;;;5.80;99.90;;;;;;4901786;29;20184;-64
2023/12/27 11:56:37;;;;;;;8.40;2.87;;;5.80;99.90;;;;;;4907577;29;20539;-65
2023/12/27 11:59:08;;;;;;;5.93;2.90;;;5.80;99.90;;;;;;4909975;29;20463;-64
2023/12/27 12:01:35;;;;;;;9.40;3.10;;;5.70;99.90;;;;;;4898211;29;20445;-64
2023/12/27 12:04:35;;;;;;;9.97;2.80;;;5.80;99.90;;;;;;4902100;29;20426;-64
2023/12/27 12:07:12;;;;;;;5.57;2.20;;;5.70;99.90;;;;;;4891744;29;20424;-64
2023/12/27 12:09:44;;;;;;;14.13;3.67;;;5.70;99.90;;;;;;4906886;29;20483;-64
2023/12/27 12:12:11;;;;;;;5.70;2.40;;;5.60;99.90;;;;;;4914478;29;20468;-65
2023/12/27 12:14:39;;;;;;;6.27;2.63;;;5.60;99.90;;;;;;4914027;29;20427;-65
2023/12/27 12:17:07;;;;;;;6.20;3.67;;;5.70;99.90;;;;;;4914432;29;20780;-63
2023/12/27 12:19:36;;;;;;;7.23;2.97;;;5.60;99.90;;;;;;4906795;29;20937;-65
2023/12/27 12:22:02;;;;;;;7.57;3.10;;;5.70;99.90;;;;;;4910430;29;20475;-65
2023/12/27 12:24:28;;;;;;;6.50;2.30;;;5.60;99.90;;;;;;4901067;29;20905;-65
2023/12/27 12:26:56;;;;;;;17.47;2.50;;;5.70;99.90;;;;;;4913172;29;20431;-65
2023/12/27 12:29:25;;;;;;;10.67;3.20;;;5.70;99.90;;;;;;4910444;29;20187;-65
2023/12/27 12:31:54;;;;;;;4.77;2.70;;;5.60;99.90;;;;;;4910751;29;20487;-65
2023/12/27 12:34:20;;;;;;;9.37;2.27;;;5.60;99.90;;;;;;4912944;29;20483;-65
2023/12/27 12:36:46;;;;;;;5.13;3.00;;;5.50;99.90;;;;;;4914336;29;20517;-64
2023/12/27 12:39:14;;;;;;;9.37;2.67;;;5.50;99.90;;;;;;4910254;29;20447;-63
2023/12/27 12:41:41;;;;;;;8.00;2.60;;;5.60;99.90;;;;;;4906300;29;20475;-63
2023/12/27 12:44:12;;;;;;;5.80;2.47;;;5.60;99.90;;;;;;4907128;29;20432;-65
2023/12/27 12:46:39;;;;;;;2.90;2.47;;;5.50;99.90;;;;;;4909651;29;20448;-64
2023/12/27 12:49:06;;;;;;;4.77;2.13;;;5.50;99.90;;;;;;4898437;29;20507;-66
2023/12/27 12:51:32;;;;;;;6.80;2.17;;;5.50;99.90;;;;;;4903459;29;20949;-65